Terminal Aerodrome Forecast
Issued by NWS Spokane, WA

Home | Current Version | Previous Version | Text Only | Print | Product List | Glossary On
Versions: 1 2 3 4 5 6 7 8 9 10 11 12 13 14 15 16 17 18 19 20 21 22 23 24
000
FTUS46 KOTX 021139
TAFLWS
TAF
KLWS 021139Z 0212/0312 10003KT P6SM SCT250
     FM021700 33005KT P6SM FEW250
     FM022200 32015G23KT P6SM SKC
     FM030300 27018G28KT P6SM SCT090
     FM030600 27014G22KT P6SM SKC=

USA.gov is the U.S. government's official web portal to all federal, state and local government web resources and services.